createdAt,value
2019-03-08T00:02:00.226Z,0.40
2019-03-08T00:07:01.968Z,0.40
2019-03-08T00:12:03.783Z,0.50
2019-03-08T00:17:05.609Z,0.80
2019-03-08T00:22:07.398Z,0.40
2019-03-08T00:27:09.240Z,0.57
2019-03-08T00:32:10.928Z,0.60
2019-03-08T00:37:12.684Z,0.40
2019-03-08T00:42:14.471Z,0.47
2019-03-08T00:47:16.270Z,0.40
2019-03-08T00:52:17.838Z,0.40
2019-03-08T00:57:19.530Z,0.50
2019-03-08T01:02:21.264Z,0.50
2019-03-08T01:07:22.938Z,0.40
2019-03-08T01:12:24.567Z,0.40
2019-03-08T01:17:26.273Z,0.40
2019-03-08T01:22:27.875Z,0.60
2019-03-08T01:27:29.560Z,0.57
2019-03-08T01:32:31.237Z,0.50
2019-03-08T01:37:32.792Z,0.47
2019-03-08T01:42:34.369Z,0.40
2019-03-08T01:47:36.218Z,0.50
2019-03-08T01:52:37.909Z,0.50
2019-03-08T01:57:39.621Z,0.67
2019-03-08T02:02:41.360Z,0.47
2019-03-08T02:07:43.099Z,0.77
2019-03-08T02:12:44.658Z,0.50
2019-03-08T02:17:46.352Z,0.40
2019-03-08T02:22:47.937Z,0.47
2019-03-08T02:27:49.630Z,0.40
2019-03-08T02:32:51.371Z,0.43
2019-03-08T02:37:52.964Z,0.70
2019-03-08T02:42:54.633Z,0.60
2019-03-08T02:47:56.383Z,0.60
2019-03-08T02:52:57.952Z,0.50
2019-03-08T02:57:59.627Z,0.40
2019-03-08T03:03:01.303Z,0.50
2019-03-08T03:08:03.095Z,0.50
2019-03-08T03:13:04.869Z,0.80
2019-03-08T03:18:06.554Z,0.70
2019-03-08T03:23:08.277Z,0.60
2019-03-08T03:28:09.944Z,0.90
2019-03-08T03:33:11.683Z,0.70
2019-03-08T03:38:13.261Z,0.80
2019-03-08T03:43:14.943Z,0.60
2019-03-08T03:48:16.571Z,0.70
2019-03-08T03:53:18.206Z,0.63
2019-03-08T03:58:19.930Z,0.80
2019-03-08T04:03:21.702Z,0.50
2019-03-08T04:08:23.394Z,0.70
2019-03-08T04:13:24.987Z,0.60
2019-03-08T04:18:26.631Z,0.60
2019-03-08T04:23:28.343Z,0.63
2019-03-08T04:28:29.991Z,0.50
2019-03-08T04:33:31.613Z,0.50
2019-03-08T04:38:33.198Z,0.60
2019-03-08T04:43:34.824Z,0.50
2019-03-08T04:48:36.376Z,0.60
2019-03-08T04:53:38.104Z,0.53
2019-03-08T04:58:39.730Z,0.57
2019-03-08T05:03:41.272Z,0.50
2019-03-08T05:08:42.829Z,0.57
2019-03-08T05:13:44.496Z,0.60
2019-03-08T05:18:46.058Z,0.63
2019-03-08T05:23:47.620Z,0.70
2019-03-08T05:28:49.345Z,0.50
2019-03-08T05:33:50.925Z,0.60
2019-03-08T05:38:52.515Z,0.50
2019-03-08T05:43:54.104Z,0.73
2019-03-08T05:48:55.697Z,0.60
2019-03-08T05:53:57.276Z,0.37
2019-03-08T05:58:58.840Z,0.63
2019-03-08T06:04:00.444Z,0.40
2019-03-08T06:09:03.868Z,0.50
2019-03-08T06:14:05.582Z,0.70
2019-03-08T06:19:07.178Z,0.50
2019-03-08T06:24:08.753Z,0.70
2019-03-08T06:29:10.305Z,0.50
2019-03-08T06:34:11.980Z,0.60
2019-03-08T06:39:13.536Z,0.37
2019-03-08T06:44:15.110Z,0.60
2019-03-08T06:49:16.785Z,0.60
2019-03-08T06:54:18.448Z,0.53
2019-03-08T06:59:27.746Z,0.53
2019-03-08T07:04:29.455Z,0.93
2019-03-08T07:09:31.063Z,0.40
2019-03-08T07:14:32.633Z,0.50
2019-03-08T07:19:40.672Z,0.60
2019-03-08T07:24:50.442Z,0.83
2019-03-08T07:30:10.334Z,1.23
2019-03-08T07:35:23.273Z,0.60
2019-03-08T07:40:32.734Z,0.60
2019-03-08T07:45:56.807Z,0.70
2019-03-08T07:51:30.215Z,0.50
2019-03-08T07:56:51.437Z,0.53
2019-03-08T08:02:01.494Z,0.53
2019-03-08T08:07:22.709Z,0.50
2019-03-08T08:12:40.572Z,0.90
2019-03-08T08:17:51.109Z,0.60
2019-03-08T08:22:58.359Z,0.57
2019-03-08T08:28:18.546Z,0.97
2019-03-08T08:33:39.781Z,0.70
2019-03-08T08:39:13.159Z,0.80
2019-03-08T08:44:32.930Z,0.50
2019-03-08T08:49:54.323Z,0.70
2019-03-08T08:54:57.146Z,0.60
2019-03-08T09:00:13.161Z,0.70
2019-03-08T09:05:19.914Z,1.00
2019-03-08T09:10:38.068Z,1.07
2019-03-08T09:16:02.070Z,0.80
2019-03-08T09:21:21.851Z,0.70
2019-03-08T09:26:35.619Z,0.60
2019-03-08T09:31:45.077Z,0.90
2019-03-08T09:36:58.846Z,0.73
2019-03-08T09:42:23.291Z,0.70
2019-03-08T09:47:34.340Z,0.70
2019-03-08T09:53:07.690Z,1.23
2019-03-08T09:58:29.035Z,0.80
2019-03-08T10:03:46.590Z,0.80
2019-03-08T10:09:10.877Z,0.70
2019-03-08T10:14:41.428Z,0.93
2019-03-08T10:19:52.418Z,0.90
2019-03-08T10:25:32.053Z,1.03
2019-03-08T10:30:40.770Z,0.73
2019-03-08T10:36:07.898Z,1.10
2019-03-08T10:41:32.329Z,1.10
2019-03-08T10:47:08.469Z,0.77
2019-03-08T10:52:28.327Z,0.97
2019-03-08T10:57:36.919Z,1.00
2019-03-08T11:02:58.570Z,0.80
2019-03-08T11:08:10.105Z,0.50
2019-03-08T11:13:43.206Z,0.60
2019-03-08T11:18:52.791Z,0.77
2019-03-08T11:24:07.651Z,0.60
2019-03-08T11:29:28.062Z,0.67
2019-03-08T11:34:52.161Z,0.77
2019-03-08T11:40:01.436Z,0.90
2019-03-08T11:45:28.985Z,0.90
2019-03-08T11:50:48.822Z,0.80
2019-03-08T11:56:04.076Z,0.90
2019-03-08T12:01:16.109Z,0.60
2019-03-08T12:06:46.650Z,0.70
2019-03-08T12:11:55.705Z,0.90
2019-03-08T12:17:16.965Z,0.97
2019-03-08T12:22:50.059Z,1.20
2019-03-08T12:28:11.299Z,1.17
2019-03-08T12:33:24.643Z,1.17
2019-03-08T12:38:40.854Z,1.07
2019-03-08T12:43:54.205Z,1.23
2019-03-08T12:49:14.078Z,0.60
2019-03-08T12:54:41.194Z,0.90
2019-03-08T13:00:19.908Z,0.70
2019-03-08T13:05:32.532Z,1.00
2019-03-08T13:10:34.123Z,1.10
2019-03-08T13:15:35.782Z,1.60
2019-03-08T13:20:37.447Z,1.50
2019-03-08T13:25:39.050Z,1.33
2019-03-08T13:30:40.618Z,1.50
2019-03-08T13:35:42.215Z,1.57
2019-03-08T13:40:43.737Z,0.97
2019-03-08T13:45:45.405Z,0.90
2019-03-08T13:50:47.056Z,0.90
2019-03-08T13:55:48.642Z,0.80
2019-03-08T14:00:50.371Z,1.30
2019-03-08T14:05:51.939Z,1.20
2019-03-08T14:10:53.634Z,1.23
2019-03-08T14:15:55.447Z,1.50
2019-03-08T14:20:57.041Z,2.07
2019-03-08T14:25:58.739Z,2.33
2019-03-08T14:31:35.442Z,2.57
2019-03-08T14:36:39.295Z,2.17
2019-03-08T14:41:55.990Z,2.30
2019-03-08T14:47:08.315Z,2.13
2019-03-08T14:52:09.877Z,1.53
2019-03-08T14:57:13.133Z,1.37
2019-03-08T15:02:15.037Z,1.87
2019-03-08T15:07:16.592Z,2.17
2019-03-08T15:12:18.162Z,1.80
2019-03-08T15:17:20.037Z,1.50
2019-03-08T15:22:21.615Z,1.70
2019-03-08T15:27:23.181Z,1.47
2019-03-08T15:32:24.861Z,1.80
2019-03-08T15:37:26.445Z,1.73
2019-03-08T15:42:28.117Z,1.97
2019-03-08T15:47:32.572Z,2.03
2019-03-08T15:52:33.442Z,2.20
2019-03-08T15:57:35.140Z,2.07
2019-03-08T16:02:37.514Z,2.20
2019-03-08T16:07:39.228Z,2.37
2019-03-08T16:12:41.029Z,2.50
2019-03-08T16:17:42.718Z,2.50
2019-03-08T16:22:44.300Z,2.67
2019-03-08T16:27:46.220Z,2.10
2019-03-08T16:33:10.299Z,2.80
2019-03-08T16:38:23.599Z,3.07
2019-03-08T16:43:50.714Z,2.20
2019-03-08T16:48:59.940Z,2.13
2019-03-08T16:54:10.530Z,2.60
2019-03-08T16:59:23.667Z,2.23
2019-03-08T17:04:39.178Z,2.37
2019-03-08T17:09:59.468Z,2.50
2019-03-08T17:15:19.542Z,2.27
2019-03-08T17:20:46.728Z,3.10
2019-03-08T17:25:57.269Z,2.70
2019-03-08T17:31:20.922Z,2.80
2019-03-08T17:36:45.361Z,2.60
2019-03-08T17:41:58.486Z,2.80
2019-03-08T17:47:22.766Z,2.20
2019-03-08T17:52:42.409Z,2.67
2019-03-08T17:58:02.090Z,3.67
2019-03-08T18:03:11.517Z,2.80
2019-03-08T18:08:44.570Z,2.50
2019-03-08T18:13:55.084Z,2.00
2019-03-08T18:19:15.381Z,2.43
2019-03-08T18:24:39.141Z,2.70
2019-03-08T18:29:48.179Z,3.07
2019-03-08T18:35:00.622Z,2.57
2019-03-08T18:40:24.780Z,2.70
2019-03-08T18:45:42.850Z,2.60
2019-03-08T18:51:01.817Z,2.47
2019-03-08T18:56:35.606Z,2.53
2019-03-08T19:02:11.923Z,2.00
2019-03-08T19:07:42.347Z,2.90
2019-03-08T19:13:08.413Z,2.73
2019-03-08T19:18:35.479Z,2.77
2019-03-08T19:23:57.741Z,2.80
2019-03-08T19:29:06.713Z,3.50
2019-03-08T19:34:47.668Z,3.23
2019-03-08T19:40:01.944Z,2.93
2019-03-08T19:45:19.175Z,2.90
2019-03-08T19:50:39.701Z,2.30
2019-03-08T19:56:00.967Z,2.20
2019-03-08T20:01:25.281Z,1.80
2019-03-08T20:06:37.960Z,1.73
2019-03-08T20:11:53.072Z,2.20
2019-03-08T20:17:14.388Z,2.93
2019-03-08T20:22:31.514Z,3.43
2019-03-08T20:27:51.354Z,3.17
2019-03-08T20:33:06.093Z,2.93
2019-03-08T20:38:26.061Z,3.40
2019-03-08T20:43:32.729Z,4.67
2019-03-08T20:48:34.408Z,3.53
2019-03-08T20:53:36.081Z,3.47
2019-03-08T20:58:38.521Z,3.40
2019-03-08T21:03:40.131Z,2.80
2019-03-08T21:08:41.796Z,3.10
2019-03-08T21:13:43.361Z,2.70
2019-03-08T21:18:45.099Z,3.20
2019-03-08T21:23:46.666Z,2.90
2019-03-08T21:28:48.246Z,2.83
2019-03-08T21:33:49.803Z,3.10
2019-03-08T21:38:51.494Z,2.50
2019-03-08T21:43:53.067Z,3.00
2019-03-08T21:48:54.621Z,2.80
2019-03-08T21:53:56.481Z,2.80
2019-03-08T21:58:58.186Z,2.90
2019-03-08T22:04:04.866Z,2.83
2019-03-08T22:09:20.698Z,2.53
2019-03-08T22:14:22.587Z,2.60
2019-03-08T22:19:24.241Z,2.77
2019-03-08T22:24:25.888Z,2.60
2019-03-08T22:29:27.460Z,3.37
2019-03-08T22:34:29.115Z,2.90
2019-03-08T22:39:30.673Z,2.83
2019-03-08T22:44:32.241Z,2.70
2019-03-08T22:49:33.998Z,3.07
2019-03-08T22:54:35.672Z,3.60
2019-03-08T22:59:37.243Z,3.40
2019-03-08T23:05:11.506Z,3.40
2019-03-08T23:10:10.821Z,3.47
2019-03-08T23:15:12.510Z,3.80
2019-03-08T23:20:14.248Z,3.63
2019-03-08T23:25:15.850Z,3.50
2019-03-08T23:30:21.330Z,3.77
2019-03-08T23:35:22.987Z,4.03
2019-03-08T23:40:24.544Z,3.83
2019-03-08T23:45:26.084Z,3.67
2019-03-08T23:50:27.639Z,3.43
2019-03-08T23:55:29.205Z,4.00
